Anthon, Iowa
Current Conditions -  °F | °C
As of 5:52 AM on Friday 19 Dec 2014 (Local Time) from KSUX Reporting Station
Haze Haze  
Wind Chill: 24°   Ceiling: 2300
Heat Index: 31°   Visibility: 5mi
Dew Point: 28°   Wind: 7mph
Humidity: 89%   Direction: 160°SSE
Pressure: 30.19"   Gusts: NA
Location:  42.39°N, 95.87°W
Report Text: KSUX 191152Z 16006KT 5SM BR SCT015 OVC023 M01/M02 A3019 RMK AO2 SLP237 T10061022 11006 21011 58003
Loading
Personal Weather Stations






























Interactive Weather Map New forecast layout! Learn more

10-Day Weather Forecast

Advertisements
Track Severe Weather on mobile